createdAt,value
2023-05-11T00:00:33.501Z,66.89
2023-05-11T00:02:59.952Z,66.72
2023-05-11T00:05:26.555Z,67.86
2023-05-11T00:07:52.931Z,67.59
2023-05-11T00:10:19.553Z,66.72
2023-05-11T00:12:46.060Z,66.25
2023-05-11T00:15:12.477Z,68.63
2023-05-11T00:17:38.871Z,67.63
2023-05-11T00:20:06.212Z,69.53
2023-05-11T00:22:32.573Z,68.71
2023-05-11T00:24:58.958Z,69.53
2023-05-11T00:27:25.560Z,67.92
2023-05-11T00:29:52.076Z,68.71
2023-05-11T00:32:18.467Z,69.46
2023-05-11T00:34:44.888Z,69.60
2023-05-11T00:37:11.316Z,69.84
2023-05-11T00:39:40.409Z,69.39
2023-05-11T00:42:06.954Z,70.82
2023-05-11T00:44:33.346Z,70.95
2023-05-11T00:46:59.915Z,71.19
2023-05-11T00:49:26.792Z,71.20
2023-05-11T00:51:53.337Z,70.41
2023-05-11T00:54:20.395Z,70.86
2023-05-11T00:56:48.279Z,69.53
2023-05-11T00:59:14.742Z,70.74
2023-05-11T01:01:41.256Z,70.25
2023-05-11T01:04:07.875Z,69.98
2023-05-11T01:06:47.525Z,71.11
2023-05-11T01:09:25.264Z,71.44
2023-05-11T01:12:00.284Z,72.21
2023-05-11T01:14:48.436Z,71.06
2023-05-11T01:17:25.583Z,71.96
2023-05-11T01:19:57.591Z,72.84
2023-05-11T01:22:36.574Z,72.29
2023-05-11T01:25:21.838Z,72.32
2023-05-11T01:28:25.942Z,71.64
2023-05-11T01:31:01.781Z,71.80
2023-05-11T01:33:32.776Z,72.86
2023-05-11T01:36:05.345Z,72.63
2023-05-11T01:38:38.630Z,71.46
2023-05-11T01:41:12.135Z,71.07
2023-05-11T01:43:40.846Z,71.88
2023-05-11T01:46:10.284Z,71.82
2023-05-11T01:48:40.727Z,71.25
2023-05-11T01:51:08.981Z,72.65
2023-05-11T01:53:37.649Z,71.93
2023-05-11T01:56:05.941Z,72.66
2023-05-11T01:58:35.879Z,72.81
2023-05-11T02:01:03.601Z,71.90
2023-05-11T02:03:32.822Z,72.15
2023-05-11T02:06:01.042Z,72.77
2023-05-11T02:08:31.166Z,71.81
2023-05-11T02:10:59.210Z,72.12
2023-05-11T02:13:27.418Z,71.57
2023-05-11T02:15:57.033Z,71.02
2023-05-11T02:18:24.431Z,71.02
2023-05-11T02:20:52.176Z,71.69
2023-05-11T02:23:20.502Z,73.04
2023-05-11T02:25:47.592Z,72.54
2023-05-11T02:28:13.970Z,72.24
2023-05-11T02:30:45.885Z,71.55
2023-05-11T02:33:17.765Z,72.18
2023-05-11T02:35:44.831Z,72.38
2023-05-11T02:38:12.463Z,72.43
2023-05-11T02:40:45.756Z,73.18
2023-05-11T02:43:15.612Z,72.88
2023-05-11T02:45:44.505Z,73.60
2023-05-11T02:48:21.390Z,73.42
2023-05-11T02:50:49.941Z,73.51
2023-05-11T02:53:17.540Z,73.16
2023-05-11T02:55:44.036Z,73.36
2023-05-11T02:58:11.176Z,72.87
2023-05-11T03:00:39.499Z,71.56
2023-05-11T03:03:06.281Z,71.79
2023-05-11T03:05:32.764Z,70.14
2023-05-11T03:07:59.960Z,69.26
2023-05-11T03:10:27.774Z,69.79
2023-05-11T03:12:54.408Z,69.20
2023-05-11T03:15:21.714Z,69.12
2023-05-11T03:17:50.122Z,68.51
2023-05-11T03:20:17.587Z,68.46
2023-05-11T03:22:45.758Z,67.94
2023-05-11T03:25:12.547Z,67.86
2023-05-11T03:27:41.912Z,68.04
2023-05-11T03:30:09.613Z,67.97
2023-05-11T03:32:36.514Z,67.82
2023-05-11T03:35:03.123Z,67.52
2023-05-11T03:37:31.214Z,67.90
2023-05-11T03:39:59.293Z,67.39
2023-05-11T03:42:27.193Z,67.44
2023-05-11T03:44:58.368Z,67.19
2023-05-11T03:47:26.228Z,67.19
2023-05-11T03:49:53.434Z,67.36
2023-05-11T03:52:21.168Z,66.68
2023-05-11T03:54:47.664Z,66.71
2023-05-11T03:57:14.968Z,66.17
2023-05-11T03:59:41.335Z,66.07
2023-05-11T04:02:08.367Z,65.82
2023-05-11T04:04:34.905Z,65.18
2023-05-11T04:07:01.392Z,65.05
2023-05-11T04:09:27.736Z,64.69
2023-05-11T04:11:54.120Z,64.57
2023-05-11T04:14:23.142Z,64.61
2023-05-11T04:16:49.497Z,64.10
2023-05-11T04:19:16.608Z,63.61
2023-05-11T04:21:42.977Z,63.56
2023-05-11T04:24:09.358Z,62.59
2023-05-11T04:26:35.712Z,62.23
2023-05-11T04:29:02.095Z,63.37
2023-05-11T04:31:30.280Z,62.24
2023-05-11T04:33:56.723Z,62.68
2023-05-11T04:36:23.077Z,62.54
2023-05-11T04:38:49.442Z,62.68
2023-05-11T04:41:15.924Z,62.23
2023-05-11T04:43:42.294Z,61.74
2023-05-11T04:46:08.633Z,61.24
2023-05-11T04:48:34.985Z,61.08
2023-05-11T04:51:04.103Z,60.68
2023-05-11T04:53:30.831Z,60.69
2023-05-11T04:55:57.322Z,60.02
2023-05-11T04:58:23.705Z,60.24
2023-05-11T05:00:50.353Z,60.41
2023-05-11T05:03:16.805Z,60.08
2023-05-11T05:05:43.179Z,60.09
2023-05-11T05:08:09.563Z,59.66
2023-05-11T05:10:35.911Z,59.68
2023-05-11T05:13:02.284Z,59.25
2023-05-11T05:15:28.683Z,58.83
2023-05-11T05:17:55.112Z,58.92
2023-05-11T05:20:21.516Z,58.59
2023-05-11T05:22:47.871Z,59.20
2023-05-11T05:25:14.246Z,58.49
2023-05-11T05:27:40.617Z,58.08
2023-05-11T05:30:07.501Z,57.99
2023-05-11T05:32:33.888Z,57.63
2023-05-11T05:35:00.342Z,57.73
2023-05-11T05:37:26.705Z,57.69
2023-05-11T05:39:53.072Z,57.86
2023-05-11T05:42:19.422Z,57.17
2023-05-11T05:44:45.910Z,56.31
2023-05-11T05:47:12.302Z,56.75
2023-05-11T05:49:38.673Z,56.83
2023-05-11T05:52:05.012Z,57.05
2023-05-11T05:54:31.370Z,57.13
2023-05-11T05:56:57.737Z,56.54
2023-05-11T05:59:24.392Z,56.75
2023-05-11T06:01:51.374Z,56.74
2023-05-11T06:04:17.830Z,55.97
2023-05-11T06:06:44.481Z,55.47
2023-05-11T06:09:10.864Z,56.17
2023-05-11T06:11:38.133Z,55.90
2023-05-11T06:14:04.501Z,55.70
2023-05-11T06:16:31.115Z,55.57
2023-05-11T06:18:57.613Z,55.01
2023-05-11T06:21:24.025Z,55.29
2023-05-11T06:23:50.378Z,54.48
2023-05-11T06:26:17.053Z,54.89
2023-05-11T06:28:43.411Z,53.95
2023-05-11T06:31:09.899Z,53.49
2023-05-11T06:33:36.361Z,53.29
2023-05-11T06:36:06.824Z,52.14
2023-05-11T06:38:34.240Z,52.09
2023-05-11T06:41:00.657Z,52.75
2023-05-11T06:43:27.025Z,52.11
2023-05-11T06:45:53.476Z,52.29
2023-05-11T06:48:20.091Z,51.22
2023-05-11T06:50:46.514Z,51.22
2023-05-11T06:53:13.520Z,50.65
2023-05-11T06:55:39.904Z,50.16
2023-05-11T06:58:06.295Z,50.44
2023-05-11T07:00:32.658Z,50.42
2023-05-11T07:02:59.094Z,50.06
2023-05-11T07:05:25.499Z,49.74
2023-05-11T07:07:51.972Z,49.83
2023-05-11T07:10:18.611Z,49.34
2023-05-11T07:12:45.322Z,48.55
2023-05-11T07:15:12.399Z,48.82
2023-05-11T07:17:38.798Z,47.77
2023-05-11T07:20:05.872Z,47.67
2023-05-11T07:22:32.272Z,47.23
2023-05-11T07:25:00.456Z,47.15
2023-05-11T07:27:26.821Z,47.13
2023-05-11T07:29:53.178Z,47.30
2023-05-11T07:32:19.535Z,47.18
2023-05-11T07:34:45.895Z,47.37
2023-05-11T07:37:12.284Z,46.98
2023-05-11T07:39:38.675Z,46.10
2023-05-11T07:42:05.052Z,45.97
2023-05-11T07:44:31.431Z,45.84
2023-05-11T07:46:58.544Z,45.67
2023-05-11T07:49:31.538Z,45.66
2023-05-11T07:52:09.132Z,45.76
2023-05-11T07:54:35.534Z,45.41
2023-05-11T07:57:02.108Z,45.43
2023-05-11T07:59:28.468Z,45.28
2023-05-11T08:01:54.894Z,44.80
2023-05-11T08:04:21.261Z,45.32
2023-05-11T08:06:47.636Z,45.03
2023-05-11T08:09:14.939Z,44.43
2023-05-11T08:11:41.828Z,44.51
2023-05-11T08:14:08.208Z,44.25
2023-05-11T08:16:36.999Z,43.53
2023-05-11T08:19:03.586Z,43.48
2023-05-11T08:21:30.536Z,42.99
2023-05-11T08:23:56.920Z,42.65
2023-05-11T08:26:23.260Z,43.03
2023-05-11T08:28:49.628Z,42.12
2023-05-11T08:31:18.459Z,41.91
2023-05-11T08:33:45.165Z,41.38
2023-05-11T08:36:13.502Z,41.63
2023-05-11T08:38:40.333Z,41.80
2023-05-11T08:41:07.673Z,41.23
2023-05-11T08:43:39.682Z,41.17
2023-05-11T08:46:07.852Z,40.95
2023-05-11T08:48:34.379Z,40.87
2023-05-11T08:51:02.120Z,40.41
2023-05-11T08:53:28.829Z,40.66
2023-05-11T08:55:58.147Z,40.15
2023-05-11T08:58:24.792Z,39.71
2023-05-11T09:00:52.005Z,39.74
2023-05-11T09:03:19.512Z,39.54
2023-05-11T09:05:47.282Z,38.99
2023-05-11T09:08:14.704Z,39.26
2023-05-11T09:10:42.367Z,38.70
2023-05-11T09:13:08.780Z,39.28
2023-05-11T09:15:38.121Z,39.58
2023-05-11T09:18:05.485Z,38.89
2023-05-11T09:20:33.411Z,37.90
2023-05-11T09:23:00.431Z,37.41
2023-05-11T09:25:31.741Z,37.68
2023-05-11T09:27:59.515Z,37.72
2023-05-11T09:30:25.983Z,37.42
2023-05-11T09:32:54.604Z,37.27
2023-05-11T09:35:29.747Z,35.87
2023-05-11T09:38:12.138Z,35.53
2023-05-11T09:40:43.223Z,34.58
2023-05-11T09:43:20.876Z,35.02
2023-05-11T09:45:48.794Z,35.56
2023-05-11T09:48:21.084Z,34.72
2023-05-11T09:50:48.721Z,35.77
2023-05-11T09:53:15.154Z,34.86
2023-05-11T09:55:55.403Z,33.88
2023-05-11T09:58:22.094Z,33.46
2023-05-11T10:00:52.563Z,33.90
2023-05-11T10:03:20.163Z,33.71
2023-05-11T10:05:57.979Z,34.46
2023-05-11T10:08:34.205Z,33.78
2023-05-11T10:11:02.577Z,32.97
2023-05-11T10:13:32.110Z,32.24
2023-05-11T10:15:59.232Z,32.33
2023-05-11T10:18:26.453Z,33.32
2023-05-11T10:20:53.403Z,31.97
2023-05-11T10:23:20.976Z,31.64
2023-05-11T10:25:48.017Z,31.01
2023-05-11T10:28:15.066Z,31.48
2023-05-11T10:30:41.942Z,31.21
2023-05-11T10:33:09.538Z,31.67
2023-05-11T10:35:38.378Z,31.71
2023-05-11T10:38:06.617Z,31.39
2023-05-11T10:40:38.454Z,31.09
2023-05-11T10:43:08.447Z,30.76
2023-05-11T10:45:59.877Z,31.26
2023-05-11T10:48:54.038Z,30.86
2023-05-11T10:51:37.976Z,29.91
2023-05-11T10:54:18.528Z,30.59
2023-05-11T10:57:00.306Z,29.53
2023-05-11T11:00:09.760Z,29.88
2023-05-11T11:02:37.487Z,30.26
2023-05-11T11:05:10.587Z,30.15
2023-05-11T11:08:07.111Z,30.21
2023-05-11T11:10:35.924Z,30.38
2023-05-11T11:13:07.939Z,31.82
2023-05-11T11:15:52.797Z,29.58
2023-05-11T11:18:27.314Z,29.25
2023-05-11T11:20:55.825Z,28.88
2023-05-11T11:23:41.167Z,29.28
2023-05-11T11:26:09.952Z,29.29
2023-05-11T11:28:54.371Z,29.82
2023-05-11T11:31:27.960Z,29.76
2023-05-11T11:33:58.779Z,28.73
2023-05-11T11:36:58.491Z,29.14
2023-05-11T11:39:30.398Z,29.16
2023-05-11T11:42:04.804Z,28.52
2023-05-11T11:44:31.390Z,31.10
2023-05-11T11:47:14.268Z,29.27
2023-05-11T11:49:43.212Z,30.04
2023-05-11T11:52:31.190Z,29.54
2023-05-11T11:55:02.339Z,29.66
2023-05-11T11:57:34.734Z,28.62
2023-05-11T12:00:07.212Z,29.58
2023-05-11T12:02:34.914Z,29.44
2023-05-11T12:05:09.548Z,29.20
2023-05-11T12:07:38.843Z,29.04
2023-05-11T12:10:05.658Z,28.90
2023-05-11T12:12:32.341Z,29.14
2023-05-11T12:14:59.880Z,29.20
2023-05-11T12:17:29.389Z,28.69
2023-05-11T12:20:12.035Z,29.29
2023-05-11T12:22:38.392Z,29.33
2023-05-11T12:25:08.817Z,29.68
2023-05-11T12:27:35.187Z,29.49
2023-05-11T12:30:01.822Z,29.23
2023-05-11T12:32:29.221Z,28.26
2023-05-11T12:35:04.484Z,27.75
2023-05-11T12:37:31.502Z,27.49
2023-05-11T12:39:58.614Z,27.08
2023-05-11T12:42:25.313Z,25.41
2023-05-11T12:44:52.252Z,25.66
2023-05-11T12:47:18.828Z,24.83
2023-05-11T12:49:45.306Z,24.61
2023-05-11T12:52:13.486Z,24.25
2023-05-11T12:54:43.388Z,24.75
2023-05-11T12:57:24.383Z,25.47
2023-05-11T13:00:05.987Z,25.68
2023-05-11T13:02:32.443Z,26.26
2023-05-11T13:04:59.020Z,25.49
2023-05-11T13:07:27.532Z,25.72
2023-05-11T13:09:58.383Z,25.70
2023-05-11T13:12:25.720Z,25.44
2023-05-11T13:15:08.983Z,24.32
2023-05-11T13:17:37.414Z,25.46
2023-05-11T13:20:34.634Z,24.59
2023-05-11T13:23:08.279Z,24.04
2023-05-11T13:25:53.055Z,24.22
2023-05-11T13:28:22.082Z,23.43
2023-05-11T13:30:48.732Z,23.71
2023-05-11T13:33:15.384Z,21.79
2023-05-11T13:35:43.227Z,22.37
2023-05-11T13:38:10.658Z,22.61
2023-05-11T13:40:37.896Z,21.72
2023-05-11T13:43:04.587Z,21.42
2023-05-11T13:45:30.993Z,22.16
2023-05-11T13:47:57.413Z,22.72
2023-05-11T13:50:25.132Z,22.85
2023-05-11T13:52:54.522Z,22.75
2023-05-11T13:55:21.608Z,22.53
2023-05-11T13:57:48.269Z,23.36
2023-05-11T14:00:15.443Z,23.15
2023-05-11T14:02:41.894Z,23.77
2023-05-11T14:05:08.926Z,23.51
2023-05-11T14:07:46.268Z,22.99
2023-05-11T14:10:14.845Z,23.01
2023-05-11T14:12:41.385Z,22.66
2023-05-11T14:15:08.468Z,23.23
2023-05-11T14:17:34.929Z,23.33
2023-05-11T14:20:01.467Z,23.43
2023-05-11T14:22:29.098Z,23.28
2023-05-11T14:24:56.076Z,23.10
2023-05-11T14:27:23.357Z,23.46
2023-05-11T14:29:52.035Z,24.38
2023-05-11T14:32:19.410Z,23.41
2023-05-11T14:34:48.981Z,22.75
2023-05-11T14:37:15.741Z,22.98
2023-05-11T14:39:47.772Z,21.85
2023-05-11T14:42:14.408Z,22.17
2023-05-11T14:44:41.666Z,23.34
2023-05-11T14:47:08.726Z,22.06
2023-05-11T14:49:35.188Z,21.92
2023-05-11T14:52:01.902Z,21.66
2023-05-11T14:54:28.288Z,20.49
2023-05-11T14:56:56.179Z,21.25
2023-05-11T14:59:26.086Z,17.19
2023-05-11T15:01:52.476Z,20.03
2023-05-11T15:04:19.251Z,19.39
2023-05-11T15:06:46.139Z,15.17
2023-05-11T15:09:12.586Z,19.06
2023-05-11T15:11:39.017Z,19.31
2023-05-11T15:14:06.880Z,19.85
2023-05-11T15:16:33.309Z,21.78
2023-05-11T15:18:59.937Z,21.76
2023-05-11T15:21:27.459Z,22.29
2023-05-11T15:23:53.846Z,21.55
2023-05-11T15:26:21.444Z,21.67
2023-05-11T15:28:47.869Z,21.58
2023-05-11T15:31:14.678Z,15.88
2023-05-11T15:33:41.420Z,20.38
2023-05-11T15:36:13.192Z,21.88
2023-05-11T15:38:40.250Z,22.36
2023-05-11T15:41:07.680Z,22.59
2023-05-11T15:43:34.087Z,22.40
2023-05-11T15:46:00.549Z,22.58
2023-05-11T15:48:26.949Z,22.09
2023-05-11T15:50:53.337Z,21.64
2023-05-11T15:53:19.777Z,21.04
2023-05-11T15:55:50.515Z,24.04
2023-05-11T15:58:18.005Z,22.61
2023-05-11T16:00:44.502Z,23.58
2023-05-11T16:03:11.007Z,23.94
2023-05-11T16:05:38.357Z,23.53
2023-05-11T16:08:06.355Z,23.99
2023-05-11T16:10:33.006Z,24.29
2023-05-11T16:12:59.469Z,23.66
2023-05-11T16:15:26.080Z,24.10
2023-05-11T16:17:52.581Z,24.70
2023-05-11T16:20:19.186Z,25.62
2023-05-11T16:22:47.482Z,25.20
2023-05-11T16:25:13.964Z,25.50
2023-05-11T16:27:40.490Z,25.13
2023-05-11T16:30:18.276Z,25.33
2023-05-11T16:32:50.729Z,25.49
2023-05-11T16:35:17.141Z,25.54
2023-05-11T16:37:43.516Z,24.56
2023-05-11T16:40:09.966Z,25.29
2023-05-11T16:42:36.353Z,24.94
2023-05-11T16:45:02.705Z,25.55
2023-05-11T16:47:29.094Z,25.07
2023-05-11T16:49:55.541Z,24.73
2023-05-11T16:52:21.914Z,22.69
2023-05-11T16:54:48.298Z,19.83
2023-05-11T16:57:14.659Z,19.45
2023-05-11T16:59:41.265Z,18.95
2023-05-11T17:02:08.233Z,18.45
2023-05-11T17:04:34.683Z,19.28
2023-05-11T17:07:01.140Z,21.90
2023-05-11T17:09:27.973Z,23.41
2023-05-11T17:11:55.206Z,24.24
2023-05-11T17:14:21.583Z,24.47
2023-05-11T17:16:48.069Z,24.67
2023-05-11T17:19:14.557Z,24.59
2023-05-11T17:21:41.289Z,25.22
2023-05-11T17:24:08.105Z,25.73
2023-05-11T17:26:46.286Z,25.41
2023-05-11T17:29:15.450Z,25.65
2023-05-11T17:31:42.146Z,25.80
2023-05-11T17:34:09.273Z,25.97
2023-05-11T17:36:36.122Z,25.44
2023-05-11T17:39:02.589Z,25.01
2023-05-11T17:41:28.983Z,25.15
2023-05-11T17:43:55.399Z,25.18
2023-05-11T17:46:21.885Z,24.45
2023-05-11T17:48:48.409Z,25.88
2023-05-11T17:51:14.803Z,26.66
2023-05-11T17:53:41.855Z,26.79
2023-05-11T17:56:09.925Z,27.55
2023-05-11T17:58:36.336Z,27.24
2023-05-11T18:01:15.614Z,28.42
2023-05-11T18:03:42.360Z,28.32
2023-05-11T18:06:09.005Z,27.92
2023-05-11T18:08:36.667Z,28.31
2023-05-11T18:11:03.244Z,28.48
2023-05-11T18:13:30.930Z,29.28
2023-05-11T18:15:58.450Z,29.57
2023-05-11T18:18:25.151Z,29.62
2023-05-11T18:20:51.660Z,29.53
2023-05-11T18:23:18.559Z,29.75
2023-05-11T18:25:44.967Z,29.18
2023-05-11T18:28:11.408Z,30.67
2023-05-11T18:30:42.009Z,30.15
2023-05-11T18:33:08.445Z,30.48
2023-05-11T18:35:35.136Z,30.93
2023-05-11T18:38:04.120Z,30.59
2023-05-11T18:40:30.510Z,30.88
2023-05-11T18:42:56.903Z,30.91
2023-05-11T18:45:23.274Z,31.38
2023-05-11T18:47:50.268Z,31.30
2023-05-11T18:50:16.763Z,31.75
2023-05-11T18:52:43.186Z,31.26
2023-05-11T18:55:10.136Z,31.19
2023-05-11T18:57:38.039Z,31.43
2023-05-11T19:00:05.440Z,31.72
2023-05-11T19:02:33.065Z,32.21
2023-05-11T19:04:59.517Z,31.78
2023-05-11T19:07:25.947Z,32.42
2023-05-11T19:09:52.617Z,32.45
2023-05-11T19:12:19.689Z,33.03
2023-05-11T19:14:47.482Z,32.85
2023-05-11T19:17:14.066Z,32.93
2023-05-11T19:19:40.534Z,32.95
2023-05-11T19:22:07.746Z,32.87
2023-05-11T19:24:35.683Z,33.07
2023-05-11T19:27:07.453Z,33.91
2023-05-11T19:29:35.231Z,33.90
2023-05-11T19:32:02.007Z,33.98
2023-05-11T19:34:28.502Z,34.03
2023-05-11T19:36:54.876Z,33.85
2023-05-11T19:39:21.298Z,33.83
2023-05-11T19:41:47.674Z,33.82
2023-05-11T19:44:14.045Z,34.99
2023-05-11T19:46:46.230Z,34.10
2023-05-11T19:49:14.893Z,34.32
2023-05-11T19:51:41.252Z,34.17
2023-05-11T19:54:07.794Z,34.89
2023-05-11T19:56:34.175Z,35.12
2023-05-11T19:59:01.222Z,35.30
2023-05-11T20:01:27.665Z,35.14
2023-05-11T20:03:54.222Z,34.87
2023-05-11T20:06:20.735Z,35.45
2023-05-11T20:08:48.832Z,35.40
2023-05-11T20:11:15.398Z,35.46
2023-05-11T20:13:42.396Z,35.71
2023-05-11T20:16:08.876Z,35.57
2023-05-11T20:18:35.333Z,35.97
2023-05-11T20:21:01.759Z,35.29
2023-05-11T20:23:28.164Z,35.51
2023-05-11T20:25:55.069Z,35.31
2023-05-11T20:28:22.097Z,36.01
2023-05-11T20:30:48.714Z,35.84
2023-05-11T20:35:44.427Z,35.70
2023-05-11T20:38:10.804Z,35.76
2023-05-11T20:40:37.182Z,36.04
2023-05-11T20:43:03.646Z,35.82
2023-05-11T20:45:30.037Z,36.45
2023-05-11T20:47:56.477Z,36.07
2023-05-11T20:50:23.428Z,36.58
2023-05-11T20:52:49.964Z,36.36
2023-05-11T20:55:17.721Z,36.15
2023-05-11T20:57:44.233Z,36.37
2023-05-11T21:00:11.432Z,36.56
2023-05-11T21:02:37.918Z,36.90
2023-05-11T21:05:04.467Z,37.18
2023-05-11T21:07:30.932Z,37.29
2023-05-11T21:09:57.376Z,37.05
2023-05-11T21:12:23.772Z,37.71
2023-05-11T21:14:50.199Z,37.55
2023-05-11T21:17:16.744Z,38.23
2023-05-11T21:19:43.226Z,37.63
2023-05-11T21:22:09.636Z,37.82
2023-05-11T21:24:37.588Z,38.17
2023-05-11T21:27:04.201Z,38.04
2023-05-11T21:29:30.627Z,38.17
2023-05-11T21:31:56.993Z,38.57
2023-05-11T21:34:23.368Z,38.15
2023-05-11T21:36:49.777Z,38.93
2023-05-11T21:39:16.154Z,38.89
2023-05-11T21:41:42.532Z,38.99
2023-05-11T21:44:08.894Z,39.02
2023-05-11T21:46:35.428Z,38.82
2023-05-11T21:49:01.881Z,38.72
2023-05-11T21:51:28.274Z,38.97
2023-05-11T21:53:57.561Z,39.29
2023-05-11T21:56:25.026Z,39.82
2023-05-11T21:58:51.414Z,39.23
2023-05-11T22:01:17.805Z,39.28
2023-05-11T22:03:44.352Z,39.65
2023-05-11T22:06:10.903Z,39.51
2023-05-11T22:08:37.366Z,39.90
2023-05-11T22:11:04.100Z,40.23
2023-05-11T22:13:30.476Z,40.40
2023-05-11T22:15:56.891Z,40.79
2023-05-11T22:18:23.409Z,40.59
2023-05-11T22:20:49.828Z,40.92
2023-05-11T22:23:16.211Z,40.96
2023-05-11T22:25:42.600Z,41.00
2023-05-11T22:28:08.999Z,40.62
2023-05-11T22:30:37.362Z,41.27
2023-05-11T22:33:03.906Z,41.38
2023-05-11T22:35:30.406Z,41.08
2023-05-11T22:37:56.790Z,40.93
2023-05-11T22:40:23.196Z,40.46
2023-05-11T22:42:49.564Z,40.75
2023-05-11T22:45:16.430Z,40.74
2023-05-11T22:47:42.888Z,40.43
2023-05-11T22:50:11.878Z,40.32
2023-05-11T22:52:38.608Z,40.49
2023-05-11T22:55:05.519Z,40.45
2023-05-11T22:57:31.888Z,40.09
2023-05-11T22:59:58.248Z,40.31
2023-05-11T23:02:24.647Z,40.19
2023-05-11T23:04:52.408Z,40.35
2023-05-11T23:07:19.445Z,40.61
2023-05-11T23:09:45.835Z,41.04
2023-05-11T23:12:12.756Z,41.25
2023-05-11T23:14:39.150Z,41.70
2023-05-11T23:17:05.533Z,41.83
2023-05-11T23:19:32.081Z,41.49
2023-05-11T23:21:58.607Z,41.77
2023-05-11T23:24:24.997Z,41.71
2023-05-11T23:26:51.361Z,41.79
2023-05-11T23:29:17.755Z,41.72
2023-05-11T23:31:44.192Z,42.37
2023-05-11T23:34:10.577Z,42.08
2023-05-11T23:36:36.951Z,41.73
2023-05-11T23:39:03.351Z,41.64
2023-05-11T23:41:29.720Z,41.85
2023-05-11T23:43:56.076Z,41.80
2023-05-11T23:46:22.436Z,41.96
2023-05-11T23:48:48.809Z,41.60
2023-05-11T23:51:16.464Z,41.78
2023-05-11T23:53:42.924Z,42.04
2023-05-11T23:56:09.320Z,42.20
2023-05-11T23:58:35.729Z,42.16
